Time;durP1;ratioP1;P1;durP2;ratioP2;P2;SDS_P1;SDS_P2;PMS_P1;PMS_P2;Temp;Humidity;BMP_temperature;BMP_pressure;BME280_temperature;BME280_humidity;BME280_pressure;Samples;Min_cycle;Max_cycle;Signal;HPM_P1;HPM_P2
2022/04/21 00:00:26;;;;;;;19.17;12.05;;;;;;;;;;10548825;28;20063;-71
2022/04/21 00:05:26;;;;;;;21.10;12.45;;;;;;;;;;10547002;28;20414;-72
2022/04/21 00:10:27;;;;;;;21.20;14.60;;;;;;;;;;10548789;28;20028;-76
2022/04/21 00:15:28;;;;;;;24.88;12.70;;;;;;;;;;10570003;28;20308;-70
2022/04/21 00:20:28;;;;;;;22.98;12.38;;;;;;;;;;10547542;28;20030;-77
2022/04/21 00:25:29;;;;;;;23.27;14.57;;;;;;;;;;10552081;28;20051;-75
2022/04/21 00:30:29;;;;;;;23.20;15.48;;;;;;;;;;10552096;28;20104;-75
2022/04/21 00:35:30;;;;;;;18.20;12.40;;;;;;;;;;10552847;28;20036;-72
2022/04/21 00:40:30;;;;;;;25.70;15.03;;;;;;;;;;10553021;28;20019;-73
2022/04/21 00:45:32;;;;;;;21.15;14.55;;;;;;;;;;10553176;28;20043;-76
2022/04/21 00:50:37;;;;;;;21.63;14.77;;;;;;;;;;10551782;28;20028;-74
2022/04/21 00:55:38;;;;;;;25.00;14.77;;;;;;;;;;10551444;28;20522;-72
2022/04/21 01:00:38;;;;;;;22.10;15.35;;;;;;;;;;10552299;28;20031;-72
2022/04/21 01:05:39;;;;;;;26.73;16.50;;;;;;;;;;10552898;28;20409;-73
2022/04/21 01:10:42;;;;;;;24.43;17.80;;;;;;;;;;10557441;28;20539;-76
2022/04/21 01:15:43;;;;;;;30.42;18.15;;;;;;;;;;10552700;28;20509;-74
2022/04/21 01:20:43;;;;;;;28.35;17.20;;;;;;;;;;10552959;28;20126;-77
2022/04/21 01:25:43;;;;;;;31.48;16.33;;;;;;;;;;10549947;28;20488;-73
2022/04/21 01:30:44;;;;;;;26.00;16.27;;;;;;;;;;10550772;28;20395;-71
2022/04/21 01:35:44;;;;;;;29.57;16.43;;;;;;;;;;10551156;28;20019;-72
2022/04/21 01:46:04;;;;;;;26.63;15.15;;;;;;;;;;10567385;28;20056;-77
2022/04/21 01:51:04;;;;;;;19.90;13.40;;;;;;;;;;10550464;28;20432;-72
2022/04/21 01:56:04;;;;;;;23.02;14.10;;;;;;;;;;10568032;28;20031;-72
2022/04/21 02:01:05;;;;;;;21.20;14.25;;;;;;;;;;10549012;28;20038;-75
2022/04/21 02:06:06;;;;;;;21.35;13.85;;;;;;;;;;10549741;28;20023;-71
2022/04/21 02:11:06;;;;;;;75.40;16.95;;;;;;;;;;10549396;28;20036;-74
2022/04/21 02:16:07;;;;;;;23.70;15.17;;;;;;;;;;10549529;28;20035;-80
2022/04/21 02:21:07;;;;;;;24.58;12.85;;;;;;;;;;10566025;28;20350;-71
2022/04/21 02:26:07;;;;;;;20.27;14.23;;;;;;;;;;10548892;28;20514;-74
2022/04/21 02:31:08;;;;;;;24.00;13.55;;;;;;;;;;10548970;28;20036;-73
2022/04/21 02:36:08;;;;;;;24.93;14.57;;;;;;;;;;10549203;28;20452;-72
2022/04/21 02:41:08;;;;;;;19.08;13.10;;;;;;;;;;10566398;28;20490;-74
2022/04/21 02:46:09;;;;;;;29.63;15.48;;;;;;;;;;10563207;28;20206;-74
2022/04/21 02:51:10;;;;;;;22.65;14.70;;;;;;;;;;10548863;28;20031;-77
2022/04/21 03:01:29;;;;;;;21.38;13.38;;;;;;;;;;10566554;28;20452;-73
2022/04/21 03:06:29;;;;;;;25.73;16.20;;;;;;;;;;10545551;28;20024;-74
2022/04/21 03:11:30;;;;;;;24.60;15.38;;;;;;;;;;10547550;28;20063;-73
2022/04/21 03:16:30;;;;;;;25.05;14.55;;;;;;;;;;10574662;28;20027;-70
2022/04/21 03:26:50;;;;;;;28.25;17.02;;;;;;;;;;10574761;28;20027;-73
2022/04/21 03:31:51;;;;;;;27.00;18.58;;;;;;;;;;10555710;28;20033;-73
2022/04/21 03:36:51;;;;;;;37.05;21.20;;;;;;;;;;10555327;28;20032;-76
2022/04/21 03:41:53;;;;;;;25.20;18.10;;;;;;;;;;10555246;28;20055;-70
2022/04/21 03:46:57;;;;;;;27.98;15.88;;;;;;;;;;10553664;28;20459;-77
2022/04/21 03:51:58;;;;;;;30.15;19.35;;;;;;;;;;10554269;28;20532;-77
2022/04/21 03:56:58;;;;;;;28.95;18.48;;;;;;;;;;10554914;28;20042;-74
2022/04/21 04:02:04;;;;;;;33.45;17.77;;;;;;;;;;10537624;28;20104;-73
2022/04/21 04:12:28;;;;;;;38.75;16.80;;;;;;;;;;10573283;28;20121;-76
2022/04/21 04:17:29;;;;;;;32.45;18.45;;;;;;;;;;10552439;28;20027;-73
2022/04/21 04:22:33;;;;;;;40.17;18.73;;;;;;;;;;10552936;28;20019;-73
2022/04/21 04:27:36;;;;;;;24.15;15.00;;;;;;;;;;10553755;28;20110;-76
2022/04/21 04:32:36;;;;;;;23.35;13.15;;;;;;;;;;10550956;28;20409;-79
2022/04/21 04:37:37;;;;;;;16.95;11.32;;;;;;;;;;10571314;28;20027;-73
2022/04/21 04:42:37;;;;;;;21.02;12.02;;;;;;;;;;10552567;28;20031;-76
2022/04/21 04:47:38;;;;;;;16.88;9.75;;;;;;;;;;10553120;28;20059;-71
2022/04/21 04:52:38;;;;;;;17.02;10.75;;;;;;;;;;10554005;28;20038;-73
2022/04/21 04:57:39;;;;;;;28.92;14.02;;;;;;;;;;10545358;28;20024;-73
2022/04/21 05:02:40;;;;;;;24.92;15.93;;;;;;;;;;10512410;28;20515;-73
2022/04/21 05:07:41;;;;;;;33.92;19.00;;;;;;;;;;10513103;28;20058;-73
2022/04/21 05:12:41;;;;;;;33.60;19.45;;;;;;;;;;10512869;28;20020;-73
2022/04/21 05:17:41;;;;;;;30.35;16.92;;;;;;;;;;10509603;28;20615;-74
2022/04/21 05:22:47;;;;;;;42.10;20.30;;;;;;;;;;10508209;28;20034;-74
2022/04/21 05:27:47;;;;;;;39.25;20.90;;;;;;;;;;10544220;28;20046;-72
2022/04/21 05:32:48;;;;;;;42.00;21.40;;;;;;;;;;10535845;28;20035;-71
2022/04/21 05:37:48;;;;;;;39.22;20.52;;;;;;;;;;10553370;28;20676;-74
2022/04/21 05:42:49;;;;;;;34.07;18.20;;;;;;;;;;10554078;28;20514;-71
2022/04/21 05:47:50;;;;;;;39.50;19.20;;;;;;;;;;10551877;28;20281;-72
2022/04/21 05:52:51;;;;;;;29.88;15.30;;;;;;;;;;10570930;28;20470;-72
2022/04/21 05:57:52;;;;;;;29.25;14.88;;;;;;;;;;10551683;28;20022;-73
2022/04/21 06:02:52;;;;;;;27.05;14.98;;;;;;;;;;10552561;28;20403;-73
2022/04/21 06:07:52;;;;;;;33.43;17.57;;;;;;;;;;10552372;28;20494;-72
2022/04/21 06:12:53;;;;;;;32.22;16.05;;;;;;;;;;10552576;28;20559;-72
2022/04/21 06:17:53;;;;;;;31.92;16.45;;;;;;;;;;10551781;28;20023;-72
2022/04/21 06:22:54;;;;;;;26.92;14.82;;;;;;;;;;10551920;28;20027;-72
2022/04/21 06:27:55;;;;;;;26.80;15.85;;;;;;;;;;10551943;28;20018;-73
2022/04/21 06:32:55;;;;;;;24.98;13.90;;;;;;;;;;10551918;28;20026;-74
2022/04/21 06:37:55;;;;;;;27.37;14.00;;;;;;;;;;10552074;28;20072;-76
2022/04/21 06:42:57;;;;;;;29.90;14.43;;;;;;;;;;10550994;28;20076;-72
2022/04/21 06:48:07;;;;;;;34.03;17.27;;;;;;;;;;10549878;28;20040;-72
2022/04/21 06:53:08;;;;;;;30.23;17.23;;;;;;;;;;10550507;28;20039;-71
2022/04/21 06:58:09;;;;;;;27.85;14.50;;;;;;;;;;10550380;28;20526;-73
2022/04/21 07:03:09;;;;;;;22.25;13.23;;;;;;;;;;10550815;28;20024;-73
2022/04/21 07:08:10;;;;;;;34.63;13.07;;;;;;;;;;10568348;28;20118;-73
2022/04/21 07:13:10;;;;;;;22.33;13.00;;;;;;;;;;10550627;28;20028;-73
2022/04/21 07:18:14;;;;;;;22.55;10.80;;;;;;;;;;10550304;28;20129;-73
2022/04/21 07:23:14;;;;;;;19.45;10.48;;;;;;;;;;10549770;28;20084;-72
2022/04/21 07:28:14;;;;;;;19.67;11.02;;;;;;;;;;10549969;28;20034;-72
2022/04/21 07:33:16;;;;;;;61.22;15.55;;;;;;;;;;10549877;28;20015;-73
2022/04/21 07:38:16;;;;;;;23.85;13.77;;;;;;;;;;10550353;28;20031;-78
2022/04/21 07:43:16;;;;;;;18.42;10.40;;;;;;;;;;10550108;28;20027;-76
2022/04/21 07:48:17;;;;;;;22.00;13.82;;;;;;;;;;10549809;28;20043;-72
2022/04/21 07:53:19;;;;;;;22.02;10.10;;;;;;;;;;10549557;28;20022;-72
2022/04/21 07:58:19;;;;;;;22.33;10.45;;;;;;;;;;10550814;28;20020;-76
2022/04/21 08:03:19;;;;;;;17.80;9.87;;;;;;;;;;10556523;28;20023;-76
2022/04/21 08:08:20;;;;;;;19.20;10.65;;;;;;;;;;10558858;28;20031;-74
2022/04/21 08:13:21;;;;;;;17.80;10.00;;;;;;;;;;10575949;28;20019;-77
2022/04/21 08:18:21;;;;;;;21.48;11.77;;;;;;;;;;10557048;28;20441;-75
2022/04/21 08:23:21;;;;;;;19.53;10.70;;;;;;;;;;10556377;28;20114;-72
2022/04/21 08:33:40;;;;;;;23.52;10.40;;;;;;;;;;10574888;28;20020;-73
2022/04/21 08:38:41;;;;;;;18.25;10.30;;;;;;;;;;10555678;28;20076;-73
2022/04/21 08:43:41;;;;;;;20.63;10.10;;;;;;;;;;10555783;28;20434;-74
2022/04/21 08:48:42;;;;;;;21.63;11.00;;;;;;;;;;10555524;28;20020;-76
2022/04/21 08:53:43;;;;;;;20.00;10.00;;;;;;;;;;10555710;28;20123;-73
2022/04/21 08:58:43;;;;;;;110.70;22.40;;;;;;;;;;10537647;28;20189;-72
2022/04/21 09:03:45;;;;;;;16.98;9.45;;;;;;;;;;10554885;28;20281;-73
2022/04/21 09:08:48;;;;;;;18.58;10.85;;;;;;;;;;10554799;28;20606;-73
2022/04/21 09:13:58;;;;;;;18.23;9.98;;;;;;;;;;10552998;28;20042;-75
2022/04/21 09:19:02;;;;;;;19.65;10.40;;;;;;;;;;10573068;28;20054;-77
2022/04/21 09:24:17;;;;;;;19.95;10.38;;;;;;;;;;10554141;28;20498;-72
2022/04/21 09:29:29;;;;;;;26.85;10.85;;;;;;;;;;10554032;28;20012;-74
2022/04/21 09:34:29;;;;;;;22.08;10.90;;;;;;;;;;10572476;28;20110;-74
2022/04/21 09:39:30;;;;;;;25.48;11.60;;;;;;;;;;10554105;28;20079;-74
2022/04/21 09:49:53;;;;;;;21.10;11.18;;;;;;;;;;10571758;28;20028;-75
2022/04/21 09:54:54;;;;;;;18.83;10.77;;;;;;;;;;10553561;28;20023;-77
2022/04/21 09:59:56;;;;;;;21.40;12.02;;;;;;;;;;10553175;28;20410;-76
2022/04/21 10:04:57;;;;;;;71.63;19.85;;;;;;;;;;10554627;28;20023;-74
2022/04/21 10:09:58;;;;;;;20.05;12.45;;;;;;;;;;10553257;28;20016;-73
2022/04/21 10:15:00;;;;;;;23.80;11.43;;;;;;;;;;10567243;28;20031;-73
2022/04/21 10:20:01;;;;;;;19.42;10.30;;;;;;;;;;10514274;28;20052;-73
2022/04/21 10:25:03;;;;;;;25.17;12.60;;;;;;;;;;10512095;28;20656;-73
2022/04/21 10:30:13;;;;;;;16.65;10.43;;;;;;;;;;10529532;28;20024;-71
2022/04/21 10:35:18;;;;;;;65.97;18.83;;;;;;;;;;10511187;28;20051;-73
2022/04/21 10:40:22;;;;;;;24.17;10.60;;;;;;;;;;10509241;28;20016;-74
2022/04/21 10:45:23;;;;;;;40.75;14.32;;;;;;;;;;10509314;28;20048;-76
2022/04/21 10:50:29;;;;;;;20.80;11.43;;;;;;;;;;10508688;28;20034;-73
2022/04/21 11:01:05;;;;;;;24.75;11.25;;;;;;;;;;10526995;28;20524;-74
2022/04/21 11:06:06;;;;;;;19.52;11.40;;;;;;;;;;10508816;28;20020;-72
2022/04/21 11:11:06;;;;;;;21.70;11.70;;;;;;;;;;10529037;28;20024;-75
2022/04/21 11:16:07;;;;;;;23.30;11.53;;;;;;;;;;10508212;28;20122;-72
2022/04/21 11:21:26;;;;;;;19.17;11.23;;;;;;;;;;10508148;28;20024;-77
2022/04/21 11:26:28;;;;;;;21.88;9.73;;;;;;;;;;10491766;28;20024;-73
2022/04/21 11:31:29;;;;;;;23.90;12.05;;;;;;;;;;10507776;28;20028;-72
2022/04/21 11:36:34;;;;;;;18.05;10.80;;;;;;;;;;10515009;28;20032;-74
2022/04/21 11:41:40;;;;;;;30.60;13.80;;;;;;;;;;10546748;28;20031;-74
2022/04/21 11:46:40;;;;;;;33.17;12.18;;;;;;;;;;10557736;28;20066;-75
2022/04/21 11:51:41;;;;;;;20.83;11.32;;;;;;;;;;10557300;28;20072;-73
2022/04/21 11:56:48;;;;;;;20.95;11.20;;;;;;;;;;10557599;28;20138;-73
2022/04/21 12:07:14;;;;;;;20.08;10.55;;;;;;;;;;10575604;28;20095;-73
2022/04/21 12:12:18;;;;;;;19.87;11.23;;;;;;;;;;10556991;28;20066;-75
2022/04/21 12:17:20;;;;;;;25.42;11.07;;;;;;;;;;10557318;28;20019;-73
2022/04/21 12:22:21;;;;;;;16.77;10.65;;;;;;;;;;10556641;28;20027;-74
2022/04/21 12:27:26;;;;;;;17.02;9.68;;;;;;;;;;10556203;28;20076;-71
2022/04/21 12:32:27;;;;;;;16.60;9.40;;;;;;;;;;10546944;28;20032;-73
2022/04/21 12:37:28;;;;;;;19.60;9.10;;;;;;;;;;10513971;28;20036;-74
2022/04/21 12:42:28;;;;;;;18.73;11.18;;;;;;;;;;10513508;28;20119;-79
2022/04/21 12:47:29;;;;;;;26.10;13.23;;;;;;;;;;10512279;28;20436;-72
2022/04/21 12:52:32;;;;;;;19.42;10.60;;;;;;;;;;10531590;28;20261;-76
2022/04/21 12:57:32;;;;;;;23.85;12.07;;;;;;;;;;10532773;28;20129;-76
2022/04/21 13:02:33;;;;;;;26.37;12.27;;;;;;;;;;10550303;28;20036;-74
2022/04/21 13:07:33;;;;;;;25.73;13.07;;;;;;;;;;10554911;28;20270;-72
2022/04/21 13:12:33;;;;;;;29.75;14.32;;;;;;;;;;10537464;27;20426;-71
2022/04/21 13:17:34;;;;;;;42.60;19.10;;;;;;;;;;10538045;28;20486;-72
2022/04/21 13:22:34;;;;;;;43.67;21.17;;;;;;;;;;10532580;28;20281;-70
2022/04/21 13:27:34;;;;;;;33.30;16.40;;;;;;;;;;10528877;28;20122;-71
2022/04/21 13:37:54;;;;;;;26.42;13.77;;;;;;;;;;10549458;28;20431;-74
2022/04/21 13:42:54;;;;;;;20.80;10.70;;;;;;;;;;10529413;28;20036;-71
2022/04/21 13:47:56;;;;;;;22.63;9.93;;;;;;;;;;10550374;28;20055;-74
2022/04/21 13:52:57;;;;;;;20.88;10.35;;;;;;;;;;10535052;28;20032;-70
2022/04/21 13:57:58;;;;;;;21.15;9.82;;;;;;;;;;10546993;28;20035;-71
2022/04/21 14:02:58;;;;;;;18.08;9.98;;;;;;;;;;10533966;28;20065;-70
2022/04/21 14:07:58;;;;;;;18.65;9.38;;;;;;;;;;10530321;28;20034;-70
2022/04/21 14:12:58;;;;;;;14.88;8.32;;;;;;;;;;10529627;28;20024;-71
2022/04/21 14:17:59;;;;;;;16.30;8.00;;;;;;;;;;10530215;28;20028;-71
2022/04/21 14:22:59;;;;;;;19.47;8.17;;;;;;;;;;10536781;28;20082;-71
2022/04/21 14:27:59;;;;;;;17.17;8.43;;;;;;;;;;10546876;28;20020;-75
2022/04/21 14:33:00;;;;;;;16.33;8.82;;;;;;;;;;10550123;28;20090;-71
2022/04/21 14:48:38;;;;;;;20.23;7.22;;;;;;;;;;10549366;28;20020;-71
2022/04/21 14:53:39;;;;;;;16.08;7.30;;;;;;;;;;10527891;28;20028;-75
2022/04/21 14:58:39;;;;;;;18.38;7.47;;;;;;;;;;10544978;28;20107;-76
2022/04/21 15:03:40;;;;;;;11.95;7.05;;;;;;;;;;10544644;28;20032;-75
2022/04/21 15:08:40;;;;;;;11.75;7.15;;;;;;;;;;10519831;28;20165;-73
2022/04/21 15:13:40;;;;;;;12.87;7.47;;;;;;;;;;10538107;28;20023;-70
2022/04/21 15:18:41;;;;;;;8.13;5.47;;;;;;;;;;10525304;28;20089;-74
2022/04/21 15:23:41;;;;;;;23.40;8.43;;;;;;;;;;10525931;28;20028;-75
2022/04/21 15:28:41;;;;;;;13.90;7.75;;;;;;;;;;10531721;28;20768;-74
2022/04/21 15:33:41;;;;;;;14.50;7.03;;;;;;;;;;10526617;28;20491;-75
2022/04/21 15:38:47;;;;;;;19.00;8.85;;;;;;;;;;10524257;23;20045;-76
2022/04/21 15:43:48;;;;;;;12.43;7.35;;;;;;;;;;10457927;28;20029;-76
2022/04/21 15:48:48;;;;;;;8.87;6.33;;;;;;;;;;10445535;28;20025;-77
2022/04/21 15:59:08;;;;;;;10.38;5.25;;;;;;;;;;10458907;28;20799;-74
2022/04/21 16:04:08;;;;;;;8.00;5.47;;;;;;;;;;10470438;28;20131;-72
2022/04/21 16:09:08;;;;;;;8.02;5.78;;;;;;;;;;10443211;28;20437;-73
2022/04/21 16:14:08;;;;;;;7.93;4.83;;;;;;;;;;10439699;28;20033;-72
2022/04/21 16:19:09;;;;;;;7.63;5.22;;;;;;;;;;10442437;28;20029;-74
2022/04/21 16:24:09;;;;;;;7.13;4.90;;;;;;;;;;10429131;28;20056;-72
2022/04/21 16:29:09;;;;;;;9.83;4.20;;;;;;;;;;10479245;28;20032;-70
2022/04/21 16:34:13;;;;;;;6.33;5.10;;;;;;;;;;10483423;28;20389;-74
2022/04/21 16:39:13;;;;;;;8.63;4.43;;;;;;;;;;10479326;28;20111;-74
2022/04/21 16:44:13;;;;;;;6.53;3.88;;;;;;;;;;10471432;28;20039;-72
2022/04/21 16:49:14;;;;;;;9.17;4.07;;;;;;;;;;10474151;28;20100;-70
2022/04/21 16:54:14;;;;;;;5.87;4.53;;;;;;;;;;10480800;28;20027;-70
2022/04/21 16:59:15;;;;;;;15.63;6.32;;;;;;;;;;10483009;28;20460;-71
2022/04/21 17:04:15;;;;;;;9.90;4.85;;;;;;;;;;10513031;28;20792;-74
2022/04/21 17:09:15;;;;;;;6.53;4.63;;;;;;;;;;10487424;28;20072;-73
2022/04/21 17:14:16;;;;;;;12.55;4.95;;;;;;;;;;10490105;28;20031;-76
2022/04/21 17:19:16;;;;;;;8.07;4.40;;;;;;;;;;10505629;28;20158;-71
2022/04/21 17:24:16;;;;;;;7.83;4.63;;;;;;;;;;10491542;28;20032;-73
2022/04/21 17:29:17;;;;;;;12.20;5.20;;;;;;;;;;10490730;28;20258;-70
2022/04/21 17:34:17;;;;;;;10.27;4.53;;;;;;;;;;10488870;28;20039;-71
2022/04/21 17:39:17;;;;;;;7.30;4.43;;;;;;;;;;10488697;28;20435;-72
2022/04/21 17:44:18;;;;;;;8.15;4.60;;;;;;;;;;10488040;28;20055;-71
2022/04/21 17:49:18;;;;;;;8.73;3.92;;;;;;;;;;10502719;28;20021;-71
2022/04/21 17:54:18;;;;;;;7.77;4.60;;;;;;;;;;10466878;28;20028;-72
2022/04/21 17:59:19;;;;;;;7.17;4.57;;;;;;;;;;10466587;28;20028;-71
2022/04/21 18:04:19;;;;;;;8.07;4.07;;;;;;;;;;10480127;28;20809;-71
2022/04/21 18:09:20;;;;;;;5.93;4.78;;;;;;;;;;10470813;28;20024;-72
2022/04/21 18:14:21;;;;;;;11.45;5.55;;;;;;;;;;10484668;28;20112;-70
2022/04/21 18:19:21;;;;;;;9.47;6.47;;;;;;;;;;10484600;28;21343;-75
2022/04/21 18:24:24;;;;;;;25.70;5.97;;;;;;;;;;10469824;28;20025;-71
2022/04/21 18:29:25;;;;;;;12.90;6.38;;;;;;;;;;10473435;28;20024;-71
2022/04/21 18:34:26;;;;;;;12.98;6.95;;;;;;;;;;10469867;28;20029;-75
2022/04/21 18:39:27;;;;;;;18.75;6.78;;;;;;;;;;10477799;28;20543;-71
2022/04/21 18:44:27;;;;;;;12.40;6.60;;;;;;;;;;10471704;28;20408;-71
2022/04/21 18:49:27;;;;;;;19.07;8.00;;;;;;;;;;10494161;28;20028;-71
2022/04/21 18:54:28;;;;;;;13.33;7.23;;;;;;;;;;10504970;28;20032;-73
2022/04/21 18:59:28;;;;;;;19.80;8.05;;;;;;;;;;10502588;28;20282;-70
2022/04/21 19:04:29;;;;;;;20.17;7.40;;;;;;;;;;10483482;28;20032;-72
2022/04/21 19:14:51;;;;;;;21.13;8.00;;;;;;;;;;10492797;28;20140;-72
2022/04/21 19:19:52;;;;;;;26.60;9.55;;;;;;;;;;10470673;28;20035;-70
2022/04/21 19:24:52;;;;;;;13.43;8.63;;;;;;;;;;10484401;28;20025;-70
2022/04/21 19:29:52;;;;;;;17.63;8.03;;;;;;;;;;10469981;28;20044;-71
2022/04/21 19:34:53;;;;;;;21.30;8.27;;;;;;;;;;10468292;28;20131;-71
2022/04/21 19:39:55;;;;;;;14.20;8.07;;;;;;;;;;10486292;28;20567;-72
2022/04/21 19:44:55;;;;;;;16.40;9.82;;;;;;;;;;10501073;28;20055;-73
2022/04/21 19:49:55;;;;;;;25.65;10.73;;;;;;;;;;10485113;28;20108;-70
2022/04/21 19:54:56;;;;;;;40.45;10.55;;;;;;;;;;10490430;28;20032;-70
2022/04/21 19:59:57;;;;;;;20.33;10.20;;;;;;;;;;10513338;28;20047;-69
2022/04/21 20:04:57;;;;;;;18.58;10.38;;;;;;;;;;10497758;28;20028;-76
2022/04/21 20:09:57;;;;;;;18.43;10.83;;;;;;;;;;10488941;28;20025;-71
2022/04/21 20:15:02;;;;;;;26.42;11.02;;;;;;;;;;10500206;28;20384;-74
2022/04/21 20:30:41;;;;;;;21.15;11.73;;;;;;;;;;10511903;28;20028;-71
2022/04/21 20:35:41;;;;;;;29.55;16.73;;;;;;;;;;10508152;28;20028;-69
2022/04/21 20:40:45;;;;;;;22.95;12.20;;;;;;;;;;10474592;28;20196;-70
2022/04/21 20:45:45;;;;;;;19.45;12.10;;;;;;;;;;10511337;28;20028;-69
2022/04/21 20:50:45;;;;;;;22.07;11.47;;;;;;;;;;10493593;28;20023;-70
2022/04/21 20:55:46;;;;;;;17.50;9.87;;;;;;;;;;10491302;28;20273;-69
2022/04/21 21:00:47;;;;;;;21.35;10.98;;;;;;;;;;10511686;28;20054;-69
2022/04/21 21:05:47;;;;;;;23.10;9.55;;;;;;;;;;10493494;28;20107;-76
2022/04/21 21:10:48;;;;;;;19.02;9.90;;;;;;;;;;10472265;28;20032;-72
2022/04/21 21:15:48;;;;;;;21.10;9.17;;;;;;;;;;10470047;28;20026;-75
2022/04/21 21:20:48;;;;;;;14.25;8.90;;;;;;;;;;10487535;28;20086;-74
2022/04/21 21:25:50;;;;;;;14.88;9.05;;;;;;;;;;10470161;28;20020;-70
2022/04/21 21:30:50;;;;;;;20.95;9.63;;;;;;;;;;10487562;28;20020;-75
2022/04/21 21:35:50;;;;;;;14.57;8.85;;;;;;;;;;10472302;28;20027;-74
2022/04/21 21:40:50;;;;;;;14.27;9.75;;;;;;;;;;10471021;28;20100;-74
2022/04/21 21:45:51;;;;;;;21.00;10.68;;;;;;;;;;10452987;28;20016;-72
2022/04/21 21:56:15;;;;;;;21.63;9.73;;;;;;;;;;10465389;28;20111;-71
2022/04/21 22:01:15;;;;;;;21.60;10.60;;;;;;;;;;10468290;28;20020;-76
2022/04/21 22:06:15;;;;;;;19.93;11.13;;;;;;;;;;10485507;28;20012;-76
2022/04/21 22:11:17;;;;;;;16.38;10.02;;;;;;;;;;10468247;28;20081;-70
2022/04/21 22:16:17;;;;;;;20.83;10.88;;;;;;;;;;10467414;28;20017;-75
2022/04/21 22:21:18;;;;;;;20.05;10.90;;;;;;;;;;10468161;28;20112;-74
2022/04/21 22:26:18;;;;;;;20.98;11.10;;;;;;;;;;10470034;28;20009;-72
2022/04/21 22:31:18;;;;;;;23.33;10.97;;;;;;;;;;10466977;28;20107;-71
2022/04/21 22:36:19;;;;;;;20.23;11.35;;;;;;;;;;10484746;28;20009;-70
2022/04/21 22:41:19;;;;;;;18.75;11.88;;;;;;;;;;10484617;28;20039;-71
2022/04/21 22:46:20;;;;;;;20.15;11.93;;;;;;;;;;10484455;28;20494;-75
2022/04/21 22:51:21;;;;;;;22.85;11.20;;;;;;;;;;10469148;28;20024;-72
2022/04/21 22:56:21;;;;;;;20.40;11.73;;;;;;;;;;10449501;28;20021;-71
2022/04/21 23:01:21;;;;;;;19.67;12.30;;;;;;;;;;10485105;28;20077;-71
2022/04/21 23:06:21;;;;;;;19.80;12.25;;;;;;;;;;10467010;28;20092;-72
2022/04/21 23:16:41;;;;;;;22.02;11.63;;;;;;;;;;10484257;28;20017;-73
2022/04/21 23:21:41;;;;;;;17.55;11.43;;;;;;;;;;10466955;28;20025;-75
2022/04/21 23:26:45;;;;;;;21.80;11.50;;;;;;;;;;10465782;28;20349;-74
2022/04/21 23:31:45;;;;;;;24.95;11.88;;;;;;;;;;10492262;23;20040;-75
2022/04/21 23:36:46;;;;;;;21.02;12.35;;;;;;;;;;10474137;28;20054;-71
2022/04/21 23:41:46;;;;;;;19.02;12.07;;;;;;;;;;10473611;28;20384;-72
2022/04/21 23:46:46;;;;;;;18.67;10.32;;;;;;;;;;10474106;28;20483;-69
2022/04/21 23:51:47;;;;;;;22.87;11.87;;;;;;;;;;10473787;28;20107;-74
2022/04/21 23:56:47;;;;;;;22.13;11.70;;;;;;;;;;10472898;28;20608;-72
